Time;durP1;ratioP1;P1;durP2;ratioP2;P2;SDS_P1;SDS_P2;PMS_P1;PMS_P2;Temp;Humidity;BMP_temperature;BMP_pressure;BME280_temperature;BME280_humidity;BME280_pressure;Samples;Min_cycle;Max_cycle;Signal;HPM_P1;HPM_P2
2023/10/25 00:02:02;;;;;;;10.70;7.72;;;;;;;;;;5012002;28;20042;-83
2023/10/25 00:04:34;;;;;;;7.43;6.10;;;;;;;;;;5012212;28;20049;-83
2023/10/25 00:07:09;;;;;;;8.52;6.35;;;;;;;;;;5016594;28;20618;-83
2023/10/25 00:09:38;;;;;;;8.43;6.25;;;;;;;;;;5031427;28;20061;-83
2023/10/25 00:12:06;;;;;;;8.70;7.80;;;;;;;;;;5014285;28;20050;-83
2023/10/25 00:14:35;;;;;;;8.63;7.72;;;;;;;;;;5013924;28;20056;-83
2023/10/25 00:17:05;;;;;;;14.90;7.82;;;;;;;;;;5003683;28;20045;-83
2023/10/25 00:19:32;;;;;;;8.57;7.63;;;;;;;;;;4994313;28;20057;-83
2023/10/25 00:22:00;;;;;;;9.75;8.30;;;;;;;;;;5019044;28;20053;-82
2023/10/25 00:24:31;;;;;;;9.50;8.00;;;;;;;;;;5010774;28;20046;-83
2023/10/25 00:26:58;;;;;;;12.25;8.27;;;;;;;;;;5019706;28;20046;-83
2023/10/25 00:29:28;;;;;;;10.80;9.27;;;;;;;;;;5025521;28;20061;-83
2023/10/25 00:31:55;;;;;;;13.00;9.48;;;;;;;;;;5013194;28;20126;-83
2023/10/25 00:34:25;;;;;;;10.68;8.82;;;;;;;;;;4998763;28;20056;-83
2023/10/25 00:36:52;;;;;;;11.73;9.70;;;;;;;;;;4999934;28;20054;-83
2023/10/25 00:39:19;;;;;;;10.65;8.25;;;;;;;;;;4999164;28;20042;-84
2023/10/25 00:41:48;;;;;;;11.98;9.02;;;;;;;;;;4995847;28;20041;-83
2023/10/25 00:44:15;;;;;;;14.38;9.93;;;;;;;;;;5027053;28;20689;-83
2023/10/25 00:46:42;;;;;;;14.05;9.77;;;;;;;;;;4994759;28;20046;-83
2023/10/25 00:49:09;;;;;;;14.43;9.40;;;;;;;;;;5011566;28;20056;-84
2023/10/25 00:51:39;;;;;;;14.55;10.98;;;;;;;;;;5006597;28;20061;-83
2023/10/25 00:54:09;;;;;;;16.25;10.20;;;;;;;;;;5003123;28;20048;-83
2023/10/25 00:56:37;;;;;;;13.23;10.43;;;;;;;;;;4997863;28;20053;-83
2023/10/25 00:59:07;;;;;;;20.92;11.82;;;;;;;;;;5011133;28;20506;-84
2023/10/25 01:01:36;;;;;;;10.43;8.68;;;;;;;;;;5017159;28;20400;-83
2023/10/25 01:04:06;;;;;;;14.27;9.50;;;;;;;;;;5000563;28;20439;-83
2023/10/25 01:06:36;;;;;;;10.88;8.50;;;;;;;;;;5000916;28;20049;-83
2023/10/25 01:09:03;;;;;;;10.57;8.80;;;;;;;;;;5001828;28;20058;-84
2023/10/25 01:11:32;;;;;;;16.23;9.80;;;;;;;;;;5010847;28;20257;-83
2023/10/25 01:13:59;;;;;;;13.55;9.68;;;;;;;;;;5032199;22;20044;-80
2023/10/25 01:16:30;;;;;;;13.63;10.45;;;;;;;;;;5082889;28;20044;-81
2023/10/25 01:18:59;;;;;;;13.30;10.38;;;;;;;;;;5082858;28;20048;-81
2023/10/25 01:21:27;;;;;;;12.88;9.10;;;;;;;;;;5076357;28;20413;-81
2023/10/25 01:23:55;;;;;;;10.85;9.75;;;;;;;;;;5062051;28;20052;-81
2023/10/25 01:26:24;;;;;;;12.43;9.35;;;;;;;;;;5061956;28;20056;-81
2023/10/25 01:28:53;;;;;;;10.40;8.75;;;;;;;;;;5058946;28;20056;-81
2023/10/25 01:31:21;;;;;;;14.80;8.68;;;;;;;;;;5060780;28;20052;-81
2023/10/25 01:33:51;;;;;;;9.13;7.88;;;;;;;;;;5078773;28;20048;-81
2023/10/25 01:36:18;;;;;;;8.82;7.60;;;;;;;;;;5078612;28;20537;-81
2023/10/25 01:38:47;;;;;;;7.75;6.32;;;;;;;;;;5079814;28;20041;-81
2023/10/25 01:41:16;;;;;;;11.10;8.15;;;;;;;;;;5077920;28;20059;-81
2023/10/25 01:43:44;;;;;;;8.23;7.28;;;;;;;;;;5063240;28;20048;-81
2023/10/25 01:46:11;;;;;;;7.82;6.72;;;;;;;;;;5064894;28;20055;-81
2023/10/25 01:48:44;;;;;;;10.52;8.50;;;;;;;;;;5062649;28;20064;-81
2023/10/25 01:51:13;;;;;;;9.77;8.50;;;;;;;;;;5090975;28;20047;-81
2023/10/25 01:53:43;;;;;;;12.73;8.00;;;;;;;;;;5074828;28;20040;-81
2023/10/25 01:56:12;;;;;;;10.38;8.32;;;;;;;;;;5062417;28;20056;-81
2023/10/25 01:58:44;;;;;;;12.77;7.65;;;;;;;;;;5088856;28;20048;-81
2023/10/25 02:01:13;;;;;;;10.75;8.10;;;;;;;;;;5089450;28;20048;-81
2023/10/25 02:03:43;;;;;;;10.10;8.00;;;;;;;;;;5061771;28;20040;-81
2023/10/25 02:06:14;;;;;;;11.77;9.70;;;;;;;;;;5061066;28;20053;-81
2023/10/25 02:08:44;;;;;;;10.68;8.30;;;;;;;;;;5080667;28;20044;-81
2023/10/25 02:11:19;;;;;;;11.90;10.65;;;;;;;;;;5078728;28;20071;-81
2023/10/25 02:13:48;;;;;;;14.63;11.23;;;;;;;;;;5081724;28;20051;-81
2023/10/25 02:16:18;;;;;;;12.05;9.25;;;;;;;;;;5075818;28;20040;-81
2023/10/25 02:18:50;;;;;;;13.27;9.68;;;;;;;;;;5076028;28;20047;-81
2023/10/25 02:21:19;;;;;;;12.15;9.35;;;;;;;;;;5080612;28;20048;-81
2023/10/25 02:23:47;;;;;;;11.82;9.57;;;;;;;;;;5060001;28;20654;-81
2023/10/25 02:26:14;;;;;;;11.77;9.30;;;;;;;;;;5073939;28;20502;-81
2023/10/25 02:28:43;;;;;;;12.45;11.10;;;;;;;;;;5051650;28;20045;-81
2023/10/25 02:31:12;;;;;;;13.75;10.73;;;;;;;;;;5058524;28;20049;-81
2023/10/25 02:33:39;;;;;;;15.27;10.68;;;;;;;;;;5091762;28;20043;-81
2023/10/25 02:36:07;;;;;;;20.50;12.63;;;;;;;;;;5076605;28;20048;-81
2023/10/25 02:38:38;;;;;;;13.68;11.63;;;;;;;;;;5079345;28;20055;-81
2023/10/25 02:41:09;;;;;;;16.48;12.68;;;;;;;;;;5057547;28;20045;-81
2023/10/25 02:43:36;;;;;;;17.33;12.38;;;;;;;;;;5074718;28;20052;-81
2023/10/25 02:46:08;;;;;;;15.82;12.60;;;;;;;;;;5079939;28;20051;-81
2023/10/25 02:48:39;;;;;;;15.45;13.48;;;;;;;;;;5071058;28;20060;-81
2023/10/25 02:51:07;;;;;;;15.27;11.52;;;;;;;;;;5076119;28;20044;-81
2023/10/25 02:53:36;;;;;;;16.58;12.15;;;;;;;;;;5074856;28;20053;-81
2023/10/25 02:56:05;;;;;;;15.15;9.90;;;;;;;;;;5082518;28;20059;-81
2023/10/25 02:58:33;;;;;;;14.82;10.10;;;;;;;;;;5061067;28;20044;-81
2023/10/25 03:01:02;;;;;;;17.08;12.70;;;;;;;;;;5060962;28;20162;-81
2023/10/25 03:03:30;;;;;;;16.10;11.15;;;;;;;;;;5062571;28;20052;-80
2023/10/25 03:05:59;;;;;;;26.23;13.40;;;;;;;;;;5059874;28;20426;-81
2023/10/25 03:08:27;;;;;;;17.63;11.60;;;;;;;;;;5056793;28;20080;-81
2023/10/25 03:10:56;;;;;;;19.60;11.55;;;;;;;;;;5060143;28;20048;-81
2023/10/25 03:13:23;;;;;;;19.88;13.40;;;;;;;;;;5085430;28;20039;-81
2023/10/25 03:15:55;;;;;;;15.85;11.10;;;;;;;;;;5076010;28;20052;-81
2023/10/25 03:18:22;;;;;;;17.83;12.55;;;;;;;;;;5063265;28;20525;-81
2023/10/25 03:20:51;;;;;;;16.50;13.18;;;;;;;;;;5066631;28;20062;-81
2023/10/25 03:23:24;;;;;;;18.25;12.48;;;;;;;;;;5042386;28;20053;-81
2023/10/25 03:25:56;;;;;;;15.20;11.00;;;;;;;;;;5054810;28;20059;-81
2023/10/25 03:28:25;;;;;;;17.13;11.85;;;;;;;;;;5064323;28;20033;-81
2023/10/25 03:30:55;;;;;;;15.50;12.10;;;;;;;;;;5085598;28;20059;-81
2023/10/25 03:33:27;;;;;;;17.75;13.13;;;;;;;;;;5059932;28;20052;-81
2023/10/25 03:35:56;;;;;;;19.90;11.68;;;;;;;;;;5040600;28;20083;-81
2023/10/25 03:38:25;;;;;;;18.02;12.57;;;;;;;;;;5054808;28;20075;-81
2023/10/25 03:41:00;;;;;;;19.80;12.52;;;;;;;;;;5054827;28;20056;-81
2023/10/25 03:43:30;;;;;;;15.93;11.80;;;;;;;;;;5030226;28;20052;-82
2023/10/25 03:45:57;;;;;;;15.02;11.23;;;;;;;;;;5068347;28;20064;-81
2023/10/25 03:48:24;;;;;;;15.13;11.27;;;;;;;;;;5059075;28;20044;-81
2023/10/25 03:50:54;;;;;;;20.27;13.52;;;;;;;;;;5055657;28;20052;-81
2023/10/25 03:53:25;;;;;;;20.17;13.82;;;;;;;;;;5047137;28;20056;-81
2023/10/25 03:55:56;;;;;;;17.63;13.52;;;;;;;;;;5067758;28;20056;-81
2023/10/25 03:58:24;;;;;;;15.68;11.50;;;;;;;;;;5075261;28;20047;-81
2023/10/25 04:00:58;;;;;;;16.98;12.50;;;;;;;;;;5067003;28;20057;-81
2023/10/25 04:03:25;;;;;;;17.00;11.95;;;;;;;;;;5069726;28;20055;-81
2023/10/25 04:05:54;;;;;;;13.73;11.90;;;;;;;;;;5068024;28;20051;-81
2023/10/25 04:08:22;;;;;;;14.55;11.20;;;;;;;;;;5042321;28;20064;-81
2023/10/25 04:10:57;;;;;;;17.92;13.80;;;;;;;;;;5063220;28;20048;-81
2023/10/25 04:13:27;;;;;;;12.68;11.27;;;;;;;;;;5060177;28;20045;-81
2023/10/25 04:15:55;;;;;;;14.52;11.25;;;;;;;;;;5060102;28;20044;-81
2023/10/25 04:18:23;;;;;;;16.70;11.88;;;;;;;;;;5041742;28;20049;-81
2023/10/25 04:20:52;;;;;;;14.27;11.93;;;;;;;;;;5066764;28;20051;-81
2023/10/25 04:23:20;;;;;;;16.80;12.00;;;;;;;;;;5041700;28;20048;-81
2023/10/25 04:25:47;;;;;;;17.75;11.52;;;;;;;;;;5064279;28;20051;-81
2023/10/25 04:28:19;;;;;;;16.40;9.68;;;;;;;;;;5072042;28;20060;-81
2023/10/25 04:30:46;;;;;;;12.85;11.00;;;;;;;;;;5073996;28;20060;-81
2023/10/25 04:33:16;;;;;;;16.05;11.35;;;;;;;;;;5060862;28;20049;-81
2023/10/25 04:35:45;;;;;;;15.88;11.43;;;;;;;;;;5050072;28;20049;-84
2023/10/25 04:38:15;;;;;;;13.88;10.40;;;;;;;;;;5037065;28;20049;-84
2023/10/25 04:40:45;;;;;;;16.90;11.98;;;;;;;;;;5047447;28;20059;-83
2023/10/25 04:43:12;;;;;;;15.38;11.05;;;;;;;;;;5055832;28;20041;-84
2023/10/25 04:45:43;;;;;;;15.57;12.85;;;;;;;;;;5066185;28;20057;-84
2023/10/25 04:48:10;;;;;;;17.10;11.23;;;;;;;;;;5054183;28;20045;-84
2023/10/25 04:50:39;;;;;;;14.63;11.00;;;;;;;;;;5066464;28;20085;-84
2023/10/25 04:53:09;;;;;;;12.90;10.20;;;;;;;;;;5072948;28;20047;-84
2023/10/25 04:55:39;;;;;;;14.27;10.75;;;;;;;;;;5062267;28;20044;-84
2023/10/25 04:58:06;;;;;;;12.65;9.32;;;;;;;;;;5065112;28;20552;-83
2023/10/25 05:00:33;;;;;;;12.55;10.15;;;;;;;;;;5047348;28;20052;-83
2023/10/25 05:03:04;;;;;;;12.00;10.07;;;;;;;;;;5065782;28;20049;-84
2023/10/25 05:05:32;;;;;;;10.98;9.80;;;;;;;;;;5039141;28;20061;-84
2023/10/25 05:08:00;;;;;;;13.52;9.65;;;;;;;;;;5055124;28;20410;-84
2023/10/25 05:10:27;;;;;;;12.75;10.48;;;;;;;;;;5034576;28;20057;-84
2023/10/25 05:12:55;;;;;;;15.00;11.07;;;;;;;;;;5038314;28;20044;-84
2023/10/25 05:15:27;;;;;;;13.50;10.45;;;;;;;;;;5052910;28;20055;-83
2023/10/25 05:17:55;;;;;;;14.43;10.15;;;;;;;;;;5048181;28;20045;-83
2023/10/25 05:20:26;;;;;;;16.55;10.50;;;;;;;;;;5056246;28;20044;-83
2023/10/25 05:22:56;;;;;;;12.98;9.52;;;;;;;;;;5046923;28;20044;-83
2023/10/25 05:25:28;;;;;;;13.88;10.18;;;;;;;;;;5065042;28;20406;-83
2023/10/25 05:27:59;;;;;;;14.63;12.00;;;;;;;;;;5059453;28;20521;-83
2023/10/25 05:30:29;;;;;;;14.50;12.25;;;;;;;;;;5066906;28;20059;-84
2023/10/25 05:33:01;;;;;;;13.85;10.25;;;;;;;;;;5063563;28;20056;-83
2023/10/25 05:35:30;;;;;;;13.63;11.45;;;;;;;;;;5060911;28;20049;-83
2023/10/25 05:37:59;;;;;;;12.70;11.10;;;;;;;;;;5052150;28;20493;-83
2023/10/25 05:40:29;;;;;;;12.00;10.23;;;;;;;;;;5050176;28;20060;-84
2023/10/25 05:42:57;;;;;;;12.68;10.98;;;;;;;;;;5051023;28;20052;-83
2023/10/25 05:45:25;;;;;;;13.73;12.30;;;;;;;;;;5032180;28;20048;-84
2023/10/25 05:47:53;;;;;;;13.43;10.45;;;;;;;;;;5034998;28;20055;-84
2023/10/25 05:50:21;;;;;;;11.48;10.32;;;;;;;;;;5050733;28;20044;-84
2023/10/25 05:52:53;;;;;;;10.50;9.40;;;;;;;;;;5051604;28;20053;-84
2023/10/25 05:55:21;;;;;;;13.02;9.90;;;;;;;;;;5034101;28;20483;-84
2023/10/25 05:57:48;;;;;;;13.52;10.52;;;;;;;;;;5046979;28;20049;-84
2023/10/25 06:00:19;;;;;;;10.43;9.32;;;;;;;;;;5030398;28;20084;-84
2023/10/25 06:02:46;;;;;;;10.40;9.10;;;;;;;;;;5046031;28;20421;-84
2023/10/25 06:05:14;;;;;;;11.35;9.98;;;;;;;;;;5052242;28;20045;-84
2023/10/25 06:07:45;;;;;;;10.98;9.35;;;;;;;;;;5044892;28;20537;-84
2023/10/25 06:10:17;;;;;;;9.50;8.50;;;;;;;;;;5050155;28;20075;-84
2023/10/25 06:12:45;;;;;;;10.20;9.07;;;;;;;;;;5033597;28;20063;-84
2023/10/25 06:15:12;;;;;;;10.77;8.90;;;;;;;;;;5052256;28;20430;-84
2023/10/25 06:17:40;;;;;;;11.55;10.23;;;;;;;;;;5059419;28;20422;-84
2023/10/25 06:20:12;;;;;;;11.55;8.82;;;;;;;;;;5039015;28;20053;-84
2023/10/25 06:22:40;;;;;;;10.70;8.95;;;;;;;;;;5047038;28;20048;-84
2023/10/25 06:25:10;;;;;;;10.10;8.98;;;;;;;;;;5061370;28;20553;-84
2023/10/25 06:27:43;;;;;;;10.95;9.85;;;;;;;;;;5034300;28;20063;-84
2023/10/25 06:30:11;;;;;;;10.05;8.32;;;;;;;;;;5051718;28;20052;-84
2023/10/25 06:32:40;;;;;;;10.35;9.05;;;;;;;;;;5050132;28;20052;-84
2023/10/25 06:35:11;;;;;;;8.75;7.90;;;;;;;;;;5053273;28;20491;-84
2023/10/25 06:37:39;;;;;;;9.55;8.35;;;;;;;;;;5049214;28;20105;-84
2023/10/25 06:40:09;;;;;;;8.60;7.72;;;;;;;;;;5049966;28;20060;-85
2023/10/25 06:42:37;;;;;;;11.75;9.27;;;;;;;;;;5036288;28;20060;-84
2023/10/25 06:45:08;;;;;;;9.38;8.45;;;;;;;;;;5042461;28;20037;-84
2023/10/25 06:47:36;;;;;;;8.43;7.63;;;;;;;;;;5048916;28;20045;-84
2023/10/25 06:50:10;;;;;;;10.77;9.20;;;;;;;;;;5050061;28;20051;-84
2023/10/25 06:52:40;;;;;;;9.02;8.07;;;;;;;;;;5049754;28;20052;-84
2023/10/25 06:55:08;;;;;;;9.05;7.65;;;;;;;;;;5049243;28;20051;-84
2023/10/25 06:57:38;;;;;;;9.38;8.38;;;;;;;;;;5060817;28;20052;-84
2023/10/25 07:00:09;;;;;;;8.50;6.93;;;;;;;;;;5033256;28;20056;-84
2023/10/25 07:02:43;;;;;;;8.38;7.30;;;;;;;;;;5053157;28;20056;-84
2023/10/25 07:05:15;;;;;;;9.35;7.18;;;;;;;;;;5068530;28;20045;-84
2023/10/25 07:07:45;;;;;;;6.70;5.97;;;;;;;;;;5050980;28;20052;-84
2023/10/25 07:10:15;;;;;;;9.52;6.75;;;;;;;;;;5051341;28;20513;-84
2023/10/25 07:12:45;;;;;;;7.10;5.25;;;;;;;;;;5070164;28;20051;-84
2023/10/25 07:15:13;;;;;;;7.85;6.10;;;;;;;;;;5077771;28;20044;-82
2023/10/25 07:17:42;;;;;;;6.75;6.05;;;;;;;;;;5068552;28;20040;-82
2023/10/25 07:20:10;;;;;;;6.65;5.55;;;;;;;;;;5061028;28;20045;-82
2023/10/25 07:22:41;;;;;;;6.90;6.20;;;;;;;;;;5058586;28;20048;-82
2023/10/25 07:25:10;;;;;;;7.05;6.35;;;;;;;;;;5061968;28;20426;-84
2023/10/25 07:27:38;;;;;;;6.88;6.20;;;;;;;;;;5054202;28;20060;-84
2023/10/25 07:30:08;;;;;;;7.47;5.80;;;;;;;;;;5056217;28;20059;-84
2023/10/25 07:32:41;;;;;;;5.77;5.20;;;;;;;;;;5040239;28;20098;-84
2023/10/25 07:35:11;;;;;;;7.57;5.25;;;;;;;;;;5061103;28;20394;-84
2023/10/25 07:37:38;;;;;;;5.57;5.07;;;;;;;;;;5063960;28;20044;-84
2023/10/25 07:40:11;;;;;;;8.25;5.53;;;;;;;;;;5044268;28;20529;-84
2023/10/25 07:42:43;;;;;;;5.20;4.43;;;;;;;;;;5064760;28;20532;-84
2023/10/25 07:45:10;;;;;;;4.97;4.38;;;;;;;;;;5051673;28;20056;-84
2023/10/25 07:47:41;;;;;;;5.13;4.57;;;;;;;;;;5065411;28;20424;-84
2023/10/25 07:50:13;;;;;;;5.22;4.38;;;;;;;;;;5053205;28;20056;-84
2023/10/25 07:52:42;;;;;;;7.80;5.80;;;;;;;;;;5061822;28;20059;-84
2023/10/25 07:55:12;;;;;;;6.80;5.00;;;;;;;;;;5065017;28;20045;-84
2023/10/25 07:57:39;;;;;;;4.32;3.58;;;;;;;;;;5063892;28;20053;-83
2023/10/25 08:00:12;;;;;;;4.38;3.97;;;;;;;;;;5066207;28;20072;-83
2023/10/25 08:02:43;;;;;;;4.70;3.65;;;;;;;;;;5054348;28;20506;-83
2023/10/25 08:05:13;;;;;;;3.97;3.20;;;;;;;;;;5053797;28;20049;-84
2023/10/25 08:07:42;;;;;;;5.50;3.70;;;;;;;;;;5072122;28;20047;-83
2023/10/25 08:10:11;;;;;;;3.10;2.80;;;;;;;;;;5067270;28;20060;-83
2023/10/25 08:12:38;;;;;;;3.63;2.90;;;;;;;;;;5053441;28;20044;-83
2023/10/25 08:15:07;;;;;;;3.70;3.40;;;;;;;;;;5068085;28;20506;-84
2023/10/25 08:17:34;;;;;;;4.15;3.15;;;;;;;;;;5066454;28;20045;-83
2023/10/25 08:20:06;;;;;;;3.20;2.88;;;;;;;;;;5072243;28;20052;-85
2023/10/25 08:22:35;;;;;;;2.60;2.38;;;;;;;;;;5066683;28;20052;-84
2023/10/25 08:25:08;;;;;;;3.95;3.65;;;;;;;;;;5071304;28;20037;-84
2023/10/25 08:27:38;;;;;;;3.40;2.63;;;;;;;;;;5077191;28;20112;-84
2023/10/25 08:30:08;;;;;;;2.63;2.20;;;;;;;;;;5071937;28;20055;-84
2023/10/25 08:32:36;;;;;;;3.13;2.72;;;;;;;;;;5044716;28;20053;-84
2023/10/25 08:35:06;;;;;;;4.40;2.45;;;;;;;;;;5052426;28;20478;-84
2023/10/25 08:37:33;;;;;;;3.13;2.67;;;;;;;;;;5074102;28;20056;-84
2023/10/25 08:40:09;;;;;;;3.95;2.70;;;;;;;;;;5073218;28;20052;-84
2023/10/25 08:42:39;;;;;;;2.97;2.63;;;;;;;;;;5065904;28;20071;-84
2023/10/25 08:45:09;;;;;;;6.57;3.05;;;;;;;;;;5070141;28;20041;-84
2023/10/25 08:47:39;;;;;;;2.58;2.35;;;;;;;;;;5066746;28;20402;-84
2023/10/25 08:50:13;;;;;;;3.83;2.90;;;;;;;;;;5066674;28;20055;-83
2023/10/25 08:52:44;;;;;;;3.03;2.28;;;;;;;;;;5068554;28;20044;-85
2023/10/25 08:55:14;;;;;;;6.25;2.22;;;;;;;;;;5067073;28;20045;-84
2023/10/25 08:57:48;;;;;;;3.58;2.90;;;;;;;;;;5072931;28;20067;-84
2023/10/25 09:00:16;;;;;;;3.15;2.60;;;;;;;;;;5073214;28;20048;-84
2023/10/25 09:02:46;;;;;;;8.45;3.72;;;;;;;;;;5057418;28;20063;-84
2023/10/25 09:05:17;;;;;;;3.95;2.83;;;;;;;;;;5059883;28;20047;-84
2023/10/25 09:07:49;;;;;;;;;;;;;;;;;;5072867;28;20059;-84
2023/10/25 09:10:23;;;;;;;3.17;2.10;;;;;;;;;;5064905;28;19920;-84
2023/10/25 09:12:53;;;;;;;3.17;2.58;;;;;;;;;;5060554;28;20056;-84
2023/10/25 09:15:28;;;;;;;3.45;2.75;;;;;;;;;;5053188;28;20054;-84
2023/10/25 09:17:57;;;;;;;2.95;2.65;;;;;;;;;;5055390;28;20063;-84
2023/10/25 09:20:28;;;;;;;2.28;2.00;;;;;;;;;;5064304;28;20494;-84
2023/10/25 09:23:09;;;;;;;2.80;2.03;;;;;;;;;;5064060;28;20044;-85
2023/10/25 09:25:39;;;;;;;4.10;2.30;;;;;;;;;;5064582;28;20044;-84
2023/10/25 09:28:15;;;;;;;4.10;2.33;;;;;;;;;;5073703;28;20044;-84
2023/10/25 09:30:47;;;;;;;3.10;2.80;;;;;;;;;;5066071;28;20056;-85
2023/10/25 09:33:14;;;;;;;2.88;2.17;;;;;;;;;;5072371;28;20067;-84
2023/10/25 09:35:45;;;;;;;2.92;2.60;;;;;;;;;;5041100;28;20045;-84
2023/10/25 09:38:13;;;;;;;7.05;2.25;;;;;;;;;;5052279;28;20052;-84
2023/10/25 09:40:43;;;;;;;3.25;2.92;;;;;;;;;;5060681;28;20071;-84
2023/10/25 09:43:15;;;;;;;3.35;2.70;;;;;;;;;;5073527;28;20055;-84
2023/10/25 09:45:43;;;;;;;2.70;2.50;;;;;;;;;;5064067;28;20055;-84
2023/10/25 09:48:12;;;;;;;2.63;2.42;;;;;;;;;;5065227;28;20040;-84
2023/10/25 09:50:43;;;;;;;3.70;3.25;;;;;;;;;;5066346;28;20048;-84
2023/10/25 09:53:19;;;;;;;2.30;2.10;;;;;;;;;;5042478;28;20509;-84
2023/10/25 09:55:54;;;;;;;4.15;2.63;;;;;;;;;;5057440;28;20041;-83
2023/10/25 09:58:25;;;;;;;3.03;2.20;;;;;;;;;;5051281;28;20037;-84
2023/10/25 10:00:56;;;;;;;4.47;2.72;;;;;;;;;;5049771;28;20053;-84
2023/10/25 10:03:26;;;;;;;3.78;2.50;;;;;;;;;;5033947;28;20068;-84
2023/10/25 10:06:05;;;;;;;2.97;2.53;;;;;;;;;;5050554;28;20395;-84
2023/10/25 10:08:42;;;;;;;3.00;2.67;;;;;;;;;;5052399;28;20048;-84
2023/10/25 10:11:13;;;;;;;3.13;2.50;;;;;;;;;;5049159;28;20045;-83
2023/10/25 10:14:28;;;;;;;2.95;2.63;;;;;;;;;;5052192;28;20055;-84
2023/10/25 10:16:57;;;;;;;3.72;3.33;;;;;;;;;;5048696;28;20049;-84
2023/10/25 10:19:27;;;;;;;3.80;3.22;;;;;;;;;;5060306;28;20549;-84
2023/10/25 10:22:05;;;;;;;3.92;2.72;;;;;;;;;;5049259;28;20052;-84
2023/10/25 10:24:42;;;;;;;3.58;3.28;;;;;;;;;;5031968;28;20057;-83
2023/10/25 10:27:09;;;;;;;3.95;2.88;;;;;;;;;;5048731;28;20037;-84
2023/10/25 10:29:44;;;;;;;3.45;3.05;;;;;;;;;;5049690;28;20140;-84
2023/10/25 10:32:11;;;;;;;4.38;2.65;;;;;;;;;;5033918;28;20052;-84
2023/10/25 10:34:43;;;;;;;3.65;2.65;;;;;;;;;;5050061;28;20076;-84
2023/10/25 10:37:12;;;;;;;4.15;3.35;;;;;;;;;;5047159;28;20052;-84
2023/10/25 10:40:13;;;;;;;3.65;2.60;;;;;;;;;;5033882;28;20450;-84
2023/10/25 10:42:44;;;;;;;3.70;3.22;;;;;;;;;;5047795;28;20049;-84
2023/10/25 10:45:14;;;;;;;3.28;2.97;;;;;;;;;;5055750;28;20057;-84
2023/10/25 10:47:43;;;;;;;2.55;2.35;;;;;;;;;;5033459;28;20053;-84
2023/10/25 10:50:14;;;;;;;3.58;3.13;;;;;;;;;;5049297;28;20059;-84
2023/10/25 10:52:44;;;;;;;3.42;2.95;;;;;;;;;;5033894;28;20053;-85
2023/10/25 10:55:16;;;;;;;3.30;3.00;;;;;;;;;;5033246;28;20045;-85
2023/10/25 10:57:46;;;;;;;3.70;3.40;;;;;;;;;;5051634;28;20053;-85
2023/10/25 11:00:18;;;;;;;5.15;3.55;;;;;;;;;;5037518;28;20414;-85
2023/10/25 11:02:48;;;;;;;5.40;3.55;;;;;;;;;;5026848;28;20061;-85
2023/10/25 11:05:19;;;;;;;3.67;3.38;;;;;;;;;;5043632;28;20048;-85
2023/10/25 11:07:50;;;;;;;4.55;3.95;;;;;;;;;;5042746;28;20048;-85
2023/10/25 11:10:21;;;;;;;4.90;4.45;;;;;;;;;;5049814;28;20045;-85
2023/10/25 11:12:51;;;;;;;6.70;5.97;;;;;;;;;;5061365;28;20057;-85
2023/10/25 11:15:24;;;;;;;14.35;11.73;;;;;;;;;;5054655;28;20044;-84
2023/10/25 11:17:54;;;;;;;4.53;4.13;;;;;;;;;;5062511;28;20062;-85
2023/10/25 11:20:22;;;;;;;27.98;21.50;;;;;;;;;;5056072;28;20040;-85
2023/10/25 11:22:49;;;;;;;5.10;4.60;;;;;;;;;;5051392;28;20063;-85
2023/10/25 11:25:21;;;;;;;4.85;4.22;;;;;;;;;;5055687;28;20053;-85
2023/10/25 11:27:49;;;;;;;5.03;3.43;;;;;;;;;;5051449;28;20402;-85
2023/10/25 11:30:16;;;;;;;4.45;3.83;;;;;;;;;;5053957;28;20063;-85
2023/10/25 11:32:46;;;;;;;3.88;3.47;;;;;;;;;;5054356;28;20521;-85
2023/10/25 11:35:23;;;;;;;3.85;3.50;;;;;;;;;;5050086;28;20064;-85
2023/10/25 11:37:51;;;;;;;4.15;3.15;;;;;;;;;;5048810;28;20049;-85
2023/10/25 11:40:21;;;;;;;3.15;2.83;;;;;;;;;;5055415;28;20048;-85
2023/10/25 11:42:50;;;;;;;4.72;3.85;;;;;;;;;;5070249;28;20052;-85
2023/10/25 11:45:21;;;;;;;3.75;3.47;;;;;;;;;;5060985;28;20399;-85
2023/10/25 11:47:54;;;;;;;3.63;3.28;;;;;;;;;;5035709;28;20045;-85
2023/10/25 11:50:24;;;;;;;4.90;3.33;;;;;;;;;;5054509;28;20052;-85
2023/10/25 11:52:54;;;;;;;4.28;3.55;;;;;;;;;;5070172;28;20036;-85
2023/10/25 11:55:22;;;;;;;4.40;3.20;;;;;;;;;;5040173;28;20076;-85
2023/10/25 11:57:50;;;;;;;2.88;2.65;;;;;;;;;;5062434;28;20048;-85
2023/10/25 12:00:17;;;;;;;4.80;3.42;;;;;;;;;;5068741;28;20063;-85
2023/10/25 12:02:47;;;;;;;3.92;2.95;;;;;;;;;;5062530;28;20545;-87
2023/10/25 12:05:15;;;;;;;4.63;4.05;;;;;;;;;;5047802;28;20053;-85
2023/10/25 12:07:49;;;;;;;4.57;3.60;;;;;;;;;;5046858;28;20076;-85
2023/10/25 12:10:17;;;;;;;3.13;2.83;;;;;;;;;;5059366;28;20045;-85
2023/10/25 12:12:50;;;;;;;4.40;3.00;;;;;;;;;;5048384;28;20052;-85
2023/10/25 12:15:19;;;;;;;3.35;3.05;;;;;;;;;;5049438;28;20057;-83
2023/10/25 12:17:47;;;;;;;2.55;2.15;;;;;;;;;;5064626;28;20057;-84
2023/10/25 12:20:14;;;;;;;3.33;2.80;;;;;;;;;;5067152;28;20041;-84
2023/10/25 12:22:44;;;;;;;3.45;2.83;;;;;;;;;;5054373;28;20045;-84
2023/10/25 12:25:11;;;;;;;5.75;3.30;;;;;;;;;;5041658;28;20063;-85
2023/10/25 12:27:39;;;;;;;4.30;3.15;;;;;;;;;;5065613;28;20514;-84
2023/10/25 12:30:09;;;;;;;3.28;2.85;;;;;;;;;;5050791;28;20513;-84
2023/10/25 12:32:36;;;;;;;4.85;4.00;;;;;;;;;;5047314;28;20052;-84
2023/10/25 12:35:04;;;;;;;5.30;3.00;;;;;;;;;;5060833;28;20056;-84
2023/10/25 12:37:31;;;;;;;2.83;2.63;;;;;;;;;;5063222;28;20679;-84
2023/10/25 12:39:58;;;;;;;3.53;3.17;;;;;;;;;;5052504;28;20513;-84
2023/10/25 12:42:28;;;;;;;3.25;2.50;;;;;;;;;;5042567;28;20041;-84
2023/10/25 12:44:58;;;;;;;5.78;3.33;;;;;;;;;;5049228;28;20406;-84
2023/10/25 12:47:27;;;;;;;5.00;4.47;;;;;;;;;;5061258;28;20052;-84
2023/10/25 12:49:54;;;;;;;5.30;3.95;;;;;;;;;;5052662;28;20049;-83
2023/10/25 12:52:22;;;;;;;4.93;4.53;;;;;;;;;;5048347;28;20055;-84
2023/10/25 12:54:51;;;;;;;6.13;4.80;;;;;;;;;;5074296;28;20052;-84
2023/10/25 12:57:19;;;;;;;8.63;6.85;;;;;;;;;;5055390;28;20049;-84
2023/10/25 12:59:49;;;;;;;5.75;5.25;;;;;;;;;;5053673;28;20060;-84
2023/10/25 13:02:18;;;;;;;5.53;5.03;;;;;;;;;;5047298;28;20041;-84
2023/10/25 13:04:49;;;;;;;4.32;3.80;;;;;;;;;;5056349;28;20056;-84
2023/10/25 13:07:19;;;;;;;5.50;4.13;;;;;;;;;;5054600;28;20502;-84
2023/10/25 13:09:48;;;;;;;4.10;3.67;;;;;;;;;;5051913;28;20056;-84
2023/10/25 13:12:18;;;;;;;3.83;3.53;;;;;;;;;;5064065;28;20051;-84
2023/10/25 13:15:09;;;;;;;4.30;3.50;;;;;;;;;;5064546;22;20049;-86
2023/10/25 13:18:00;;;;;;;4.28;3.35;;;;;;;;;;5006944;28;20045;-86
2023/10/25 13:21:06;;;;;;;4.78;3.42;;;;;;;;;;5034485;28;20404;-85
2023/10/25 13:24:12;;;;;;;4.03;3.47;;;;;;;;;;5021379;28;20057;-86
2023/10/25 13:26:53;;;;;;;;;;;;;;;;;;;;;
2023/10/25 13:29:26;;;;;;;5.95;3.90;;;;;;;;;;5003983;28;20050;-86
2023/10/25 13:32:12;;;;;;;4.82;4.30;;;;;;;;;;5020654;28;20057;-86
2023/10/25 13:34:44;;;;;;;4.55;4.15;;;;;;;;;;5024154;28;20053;-86
2023/10/25 13:37:15;;;;;;;4.25;3.60;;;;;;;;;;5019143;28;20053;-86
2023/10/25 13:39:50;;;;;;;4.38;4.03;;;;;;;;;;5031811;28;20483;-86
2023/10/25 13:42:22;;;;;;;4.82;4.43;;;;;;;;;;5025761;28;20502;-86
2023/10/25 13:44:54;;;;;;;4.38;3.97;;;;;;;;;;5027744;28;20054;-86
2023/10/25 13:47:25;;;;;;;4.50;4.10;;;;;;;;;;5025450;28;20411;-86
2023/10/25 13:50:09;;;;;;;4.88;4.43;;;;;;;;;;5023170;28;20049;-86
2023/10/25 13:52:45;;;;;;;5.45;4.43;;;;;;;;;;5011582;28;20049;-86
2023/10/25 13:55:24;;;;;;;5.60;4.82;;;;;;;;;;4990972;28;20054;-86
2023/10/25 13:57:51;;;;;;;4.03;3.63;;;;;;;;;;5031568;28;20443;-86
2023/10/25 14:00:18;;;;;;;4.85;4.20;;;;;;;;;;5011488;28;20058;-86
2023/10/25 14:02:48;;;;;;;5.30;3.70;;;;;;;;;;5020407;28;20058;-86
2023/10/25 14:05:18;;;;;;;8.15;4.65;;;;;;;;;;4998108;28;20054;-86
2023/10/25 14:07:49;;;;;;;4.78;4.20;;;;;;;;;;5002017;28;20048;-86
2023/10/25 14:10:19;;;;;;;5.70;4.10;;;;;;;;;;5013296;28;20431;-86
2023/10/25 14:12:48;;;;;;;4.75;4.18;;;;;;;;;;5029351;28;20045;-86
2023/10/25 14:15:15;;;;;;;5.20;4.70;;;;;;;;;;5030738;28;20515;-87
2023/10/25 14:17:45;;;;;;;4.53;4.03;;;;;;;;;;5016884;28;20042;-87
2023/10/25 14:20:14;;;;;;;5.70;5.10;;;;;;;;;;5010002;28;20059;-86
2023/10/25 14:22:41;;;;;;;9.70;8.20;;;;;;;;;;5008278;28;20065;-86
2023/10/25 14:25:10;;;;;;;6.55;5.60;;;;;;;;;;5027685;28;20049;-86
2023/10/25 14:27:41;;;;;;;9.40;8.38;;;;;;;;;;5012028;28;20068;-86
2023/10/25 14:30:09;;;;;;;9.40;8.43;;;;;;;;;;5029090;28;20053;-86
2023/10/25 14:32:36;;;;;;;10.38;9.27;;;;;;;;;;5006493;28;20050;-86
2023/10/25 14:35:07;;;;;;;9.32;8.52;;;;;;;;;;5025103;28;20056;-85
2023/10/25 14:37:34;;;;;;;19.92;15.70;;;;;;;;;;5028637;28;20388;-85
2023/10/25 14:40:06;;;;;;;10.15;8.57;;;;;;;;;;5025617;28;20049;-86
2023/10/25 14:42:35;;;;;;;8.15;7.38;;;;;;;;;;5002974;28;20054;-86
2023/10/25 14:45:05;;;;;;;9.75;6.57;;;;;;;;;;5011404;28;20496;-85
2023/10/25 14:47:35;;;;;;;6.85;6.20;;;;;;;;;;5006905;28;20415;-86
2023/10/25 14:50:03;;;;;;;5.65;5.13;;;;;;;;;;5029231;28;20053;-86
2023/10/25 14:52:30;;;;;;;6.65;5.95;;;;;;;;;;5014471;28;20052;-85
2023/10/25 14:55:00;;;;;;;6.82;6.03;;;;;;;;;;5030736;28;20402;-85